Yoder, Colorado
Current Conditions -  °F | °C
As of 12:56 AM on Sunday 23 Nov 2014 (Local Time) from KSHM Reporting Station
Broken Clouds Broken Clouds  
Wind Chill: 40°   Ceiling: 17000
Heat Index: 47°   Visibility: 10mi
Dew Point: 20°   Wind: 16mph
Humidity: 35%   Direction: 280°W
Pressure: 29.56"   Gusts: 25mph
Location:  38.84°N, 104.22°W
Report Text: KSHM 230756Z AUTO 28014G22KT 10SM BKN170 08/M07 A2956 RMK AO2 SLP969 T00811066 401541036
Loading
Personal Weather Stations






























Interactive Weather Map New forecast layout! Learn more

10-Day Weather Forecast

Advertisements
Track Severe Weather on mobile